createdAt,value
2022-09-27T00:01:14.533Z,98510.53
2022-09-27T00:03:42.840Z,98519.97
2022-09-27T00:06:14.566Z,98520.81
2022-09-27T00:08:43.558Z,98523.00
2022-09-27T00:11:21.564Z,98518.41
2022-09-27T00:13:49.374Z,98518.09
2022-09-27T00:16:17.298Z,98524.16
2022-09-27T00:18:45.301Z,98520.31
2022-09-27T00:21:14.530Z,98519.50
2022-09-27T00:23:42.957Z,98519.28
2022-09-27T00:26:13.296Z,98512.72
2022-09-27T00:28:42.611Z,98518.72
2022-09-27T00:31:21.752Z,98511.91
2022-09-27T00:33:50.486Z,98504.84
2022-09-27T00:36:19.431Z,98511.34
2022-09-27T00:38:47.820Z,98512.72
2022-09-27T00:41:18.803Z,98510.81
2022-09-27T00:43:51.495Z,98511.41
2022-09-27T00:46:28.024Z,98506.00
2022-09-27T00:49:05.967Z,98495.41
2022-09-27T00:51:37.415Z,98497.81
2022-09-27T00:54:07.655Z,98495.09
2022-09-27T00:56:36.993Z,98495.41
2022-09-27T00:59:10.239Z,98494.59
2022-09-27T01:01:38.368Z,98497.03
2022-09-27T01:04:10.039Z,98497.53
2022-09-27T01:06:38.597Z,98502.47
2022-09-27T01:09:08.035Z,98487.56
2022-09-27T01:11:45.360Z,98484.00
2022-09-27T01:14:37.824Z,98483.22
2022-09-27T01:17:18.939Z,98492.69
2022-09-27T01:20:19.720Z,98478.56
2022-09-27T01:23:02.027Z,98478.88
2022-09-27T01:25:53.655Z,98485.38
2022-09-27T01:28:26.493Z,98484.84
2022-09-27T01:31:03.546Z,98488.34
2022-09-27T01:33:44.084Z,98484.03
2022-09-27T01:36:29.871Z,98467.50
2022-09-27T01:39:11.988Z,98466.94
2022-09-27T01:41:47.271Z,98476.41
2022-09-27T01:44:22.293Z,98472.88
2022-09-27T01:46:54.154Z,98472.88
2022-09-27T01:49:29.221Z,98468.28
2022-09-27T01:52:01.077Z,98470.75
2022-09-27T01:54:37.073Z,98477.81
2022-09-27T01:57:07.626Z,98464.81
2022-09-27T01:59:43.171Z,98466.69
2022-09-27T02:02:13.695Z,98465.00
2022-09-27T02:04:43.668Z,98470.16
2022-09-27T02:07:16.697Z,98465.84
2022-09-27T02:09:49.763Z,98467.44
2022-09-27T02:12:24.322Z,98466.66
2022-09-27T02:14:56.659Z,98466.63
2022-09-27T02:17:36.483Z,98470.69
2022-09-27T02:20:13.452Z,98459.34
2022-09-27T02:22:46.899Z,98473.72
2022-09-27T02:25:21.369Z,98472.31
2022-09-27T02:27:58.493Z,98473.97
2022-09-27T02:30:26.480Z,98469.16
2022-09-27T02:32:56.017Z,98473.72
2022-09-27T02:35:29.552Z,98474.75
2022-09-27T02:37:58.477Z,98483.19
2022-09-27T02:40:32.736Z,98476.66
2022-09-27T02:43:02.330Z,98473.13
2022-09-27T02:45:38.681Z,98478.28
2022-09-27T02:48:18.652Z,98471.50
2022-09-27T02:51:02.762Z,98486.69
2022-09-27T02:53:40.433Z,98486.69
2022-09-27T02:56:14.086Z,98486.16
2022-09-27T02:58:55.505Z,98494.06
2022-09-27T03:01:30.909Z,98493.50
2022-09-27T03:04:06.562Z,98491.84
2022-09-27T03:06:36.726Z,98490.22
2022-09-27T03:09:04.690Z,98483.47
2022-09-27T03:11:33.479Z,98490.22
2022-09-27T03:14:08.908Z,98501.94
2022-09-27T03:16:37.376Z,98497.88
2022-09-27T03:19:06.697Z,98501.38
2022-09-27T03:21:35.223Z,98494.88
2022-09-27T03:24:03.435Z,98507.63
2022-09-27T03:26:31.315Z,98511.16
2022-09-27T03:28:59.205Z,98517.94
2022-09-27T03:31:27.151Z,98519.03
2022-09-27T03:33:55.223Z,98520.94
2022-09-27T03:36:24.519Z,98508.44
2022-09-27T03:38:52.340Z,98518.75
2022-09-27T03:41:20.295Z,98521.66
2022-09-27T03:43:48.089Z,98517.59
2022-09-27T03:46:16.263Z,98532.25
2022-09-27T03:48:44.231Z,98539.28
2022-09-27T03:51:12.735Z,98525.94
2022-09-27T03:53:42.807Z,98529.50
2022-09-27T03:56:10.745Z,98540.34
2022-09-27T03:58:38.564Z,98533.25
2022-09-27T04:01:06.488Z,98538.44
2022-09-27T04:03:35.018Z,98541.88
2022-09-27T04:06:03.031Z,98538.91
2022-09-27T04:08:31.073Z,98536.66
2022-09-27T04:11:00.370Z,98544.00
2022-09-27T04:13:28.204Z,98554.50
2022-09-27T04:15:56.247Z,98560.69
2022-09-27T04:18:24.124Z,98564.53
2022-09-27T04:20:52.045Z,98568.03
2022-09-27T04:23:20.597Z,98566.28
2022-09-27T04:25:48.774Z,98563.34
2022-09-27T04:28:18.070Z,98560.25
2022-09-27T04:30:46.702Z,98571.38
2022-09-27T04:33:14.926Z,98580.06
2022-09-27T04:36:01.014Z,98577.59
2022-09-27T04:38:28.857Z,98579.75
2022-09-27T04:40:57.314Z,98582.72
2022-09-27T04:43:26.674Z,98586.19
2022-09-27T04:45:54.577Z,98570.97
2022-09-27T04:48:22.498Z,98589.97
2022-09-27T04:51:00.536Z,98582.56
2022-09-27T04:53:29.653Z,98593.75
2022-09-27T04:55:57.806Z,98599.25
2022-09-27T04:58:27.180Z,98599.16
2022-09-27T05:00:55.627Z,98603.59
2022-09-27T05:03:23.649Z,98603.63
2022-09-27T05:05:51.543Z,98607.88
2022-09-27T05:08:19.417Z,98606.53
2022-09-27T05:10:47.349Z,98605.19
2022-09-27T05:13:15.352Z,98610.88
2022-09-27T05:15:44.653Z,98617.06
2022-09-27T05:18:12.818Z,98619.53
2022-09-27T05:20:40.691Z,98614.91
2022-09-27T05:23:08.519Z,98627.44
2022-09-27T05:25:36.715Z,98632.81
2022-09-27T05:28:06.107Z,98631.75
2022-09-27T05:30:34.334Z,98639.66
2022-09-27T05:33:03.574Z,98642.94
2022-09-27T05:35:31.722Z,98641.34
2022-09-27T05:38:01.395Z,98640.53
2022-09-27T05:40:41.244Z,98642.94
2022-09-27T05:43:09.801Z,98643.22
2022-09-27T05:45:38.045Z,98611.84
2022-09-27T05:48:07.602Z,98648.38
2022-09-27T05:50:35.474Z,98647.53
2022-09-27T05:53:03.327Z,98663.03
2022-09-27T05:55:31.270Z,98664.41
2022-09-27T05:58:00.905Z,98660.72
2022-09-27T06:00:29.550Z,98674.44
2022-09-27T06:02:58.987Z,98677.50
2022-09-27T06:05:31.218Z,98690.25
2022-09-27T06:08:01.041Z,98681.31
2022-09-27T06:10:30.814Z,98677.53
2022-09-27T06:13:02.364Z,98673.25
2022-09-27T06:15:31.394Z,98690.63
2022-09-27T06:18:04.613Z,98680.34
2022-09-27T06:20:34.732Z,98679.75
2022-09-27T06:23:07.470Z,98693.06
2022-09-27T06:25:35.650Z,98702.41
2022-09-27T06:28:03.893Z,98694.53
2022-09-27T06:30:32.393Z,98701.97
2022-09-27T06:33:02.379Z,98701.69
2022-09-27T06:35:31.449Z,98719.03
2022-09-27T06:38:04.869Z,98701.22
2022-09-27T06:40:32.815Z,98712.44
2022-09-27T06:43:03.994Z,98724.94
2022-09-27T06:45:32.423Z,98720.69
2022-09-27T06:48:02.522Z,98724.41
2022-09-27T06:50:30.631Z,98727.94
2022-09-27T06:52:58.670Z,98731.72
2022-09-27T06:55:27.942Z,98731.69
2022-09-27T06:58:13.516Z,98736.31
2022-09-27T07:00:42.233Z,98732.25
2022-09-27T07:03:11.824Z,98730.25
2022-09-27T07:05:40.654Z,98737.13
2022-09-27T07:08:11.928Z,98748.94
2022-09-27T07:10:42.140Z,98757.06
2022-09-27T07:13:12.137Z,98755.56
2022-09-27T07:15:42.910Z,98756.69
2022-09-27T07:18:10.870Z,98767.53
2022-09-27T07:20:38.915Z,98774.38
2022-09-27T07:23:07.857Z,98777.22
2022-09-27T07:25:36.306Z,98775.69
2022-09-27T07:28:08.845Z,98774.56
2022-09-27T07:30:38.644Z,98782.94
2022-09-27T07:33:07.529Z,98782.47
2022-09-27T07:35:36.937Z,98771.91
2022-09-27T07:38:05.322Z,98792.91
2022-09-27T07:40:33.488Z,98782.63
2022-09-27T07:43:01.565Z,98787.34
2022-09-27T07:45:31.126Z,98790.47
2022-09-27T07:47:59.384Z,98798.13
2022-09-27T07:50:28.869Z,98793.41
2022-09-27T07:52:56.906Z,98799.38
2022-09-27T07:55:25.246Z,98805.13
2022-09-27T07:57:53.641Z,98811.47
2022-09-27T08:00:21.809Z,98801.47
2022-09-27T08:02:51.244Z,98809.75
2022-09-27T08:05:19.146Z,98814.06
2022-09-27T08:07:47.088Z,98820.47
2022-09-27T08:10:15.466Z,98829.66
2022-09-27T08:12:43.400Z,98810.84
2022-09-27T08:15:12.252Z,98815.31
2022-09-27T08:17:40.246Z,98817.03
2022-09-27T08:20:10.403Z,98829.63
2022-09-27T08:22:41.607Z,98797.50
2022-09-27T08:25:10.795Z,98833.44
2022-09-27T08:27:38.745Z,98839.72
2022-09-27T08:30:07.580Z,98829.63
2022-09-27T08:32:37.058Z,98827.44
2022-09-27T08:35:07.470Z,98837.78
2022-09-27T08:37:36.796Z,98834.53
2022-09-27T08:40:05.634Z,98835.63
2022-09-27T08:42:45.044Z,98837.56
2022-09-27T08:45:18.655Z,98841.88
2022-09-27T08:47:50.447Z,98840.50
2022-09-27T08:50:27.241Z,98845.59
2022-09-27T08:53:00.942Z,98834.22
2022-09-27T08:55:36.930Z,98847.59
2022-09-27T08:58:13.293Z,98844.84
2022-09-27T09:00:43.409Z,98848.97
2022-09-27T09:03:19.422Z,98849.78
2022-09-27T09:06:11.642Z,98849.19
2022-09-27T09:08:53.711Z,98855.50
2022-09-27T09:11:51.231Z,98856.25
2022-09-27T09:15:00.543Z,98857.22
2022-09-27T09:17:43.793Z,98853.13
2022-09-27T09:20:23.216Z,98863.09
2022-09-27T09:23:10.867Z,98850.47
2022-09-27T09:25:50.697Z,98865.84
2022-09-27T09:28:34.386Z,98846.81
2022-09-27T09:31:11.348Z,98847.25
2022-09-27T09:33:42.590Z,98856.25
2022-09-27T09:36:19.682Z,98846.53
2022-09-27T09:38:51.781Z,98844.59
2022-09-27T09:41:24.676Z,98859.06
2022-09-27T09:43:58.024Z,98844.16
2022-09-27T09:46:34.515Z,98842.47
2022-09-27T09:49:07.493Z,98840.81
2022-09-27T09:51:42.374Z,98840.94
2022-09-27T09:54:21.248Z,98837.72
2022-09-27T09:56:57.329Z,98847.44
2022-09-27T09:59:31.440Z,98833.53
2022-09-27T10:02:11.780Z,98826.19
2022-09-27T10:04:39.900Z,98832.50
2022-09-27T10:07:09.700Z,98826.09
2022-09-27T10:09:37.727Z,98829.91
2022-09-27T10:12:07.148Z,98831.16
2022-09-27T10:14:35.226Z,98828.19
2022-09-27T10:17:07.565Z,98827.19
2022-09-27T10:19:39.471Z,98822.41
2022-09-27T10:22:16.775Z,98813.03
2022-09-27T10:24:56.643Z,98812.88
2022-09-27T10:27:26.846Z,98806.38
2022-09-27T10:29:59.442Z,98818.69
2022-09-27T10:32:31.366Z,98809.75
2022-09-27T10:35:23.755Z,98802.81
2022-09-27T10:37:52.643Z,98814.59
2022-09-27T10:40:29.021Z,98814.25
2022-09-27T10:42:58.391Z,98803.81
2022-09-27T10:45:30.156Z,98795.31
2022-09-27T10:47:59.162Z,98788.09
2022-09-27T10:53:21.447Z,98794.38
2022-09-27T10:55:51.819Z,98791.09
2022-09-27T10:58:27.778Z,98793.97
2022-09-27T11:00:58.725Z,98796.69
2022-09-27T11:03:29.015Z,98815.66
2022-09-27T11:05:59.412Z,98809.19
2022-09-27T11:08:32.685Z,98813.97
2022-09-27T11:11:17.437Z,98813.63
2022-09-27T11:14:00.743Z,98812.44
2022-09-27T11:16:48.123Z,98803.94
2022-09-27T11:19:31.948Z,98798.72
2022-09-27T11:22:10.756Z,98798.97
2022-09-27T11:24:54.063Z,98791.78
2022-09-27T11:27:32.263Z,98794.63
2022-09-27T11:30:09.722Z,98782.38
2022-09-27T11:33:05.932Z,98790.16
2022-09-27T11:35:47.159Z,98793.41
2022-09-27T11:38:47.928Z,98787.03
2022-09-27T11:41:30.013Z,98779.88
2022-09-27T11:44:19.763Z,98777.22
2022-09-27T11:46:59.234Z,98770.84
2022-09-27T11:49:43.844Z,98772.50
2022-09-27T11:52:28.457Z,98756.16
2022-09-27T11:55:14.311Z,98765.88
2022-09-27T11:57:46.598Z,98766.44
2022-09-27T12:00:23.968Z,98762.53
2022-09-27T12:03:33.710Z,98755.66
2022-09-27T12:06:11.859Z,98749.19
2022-09-27T12:08:58.468Z,98760.75
2022-09-27T12:11:30.398Z,98766.56
2022-09-27T12:14:02.823Z,98750.78
2022-09-27T12:16:32.452Z,98755.47
2022-09-27T12:19:04.178Z,98754.50
2022-09-27T12:21:34.501Z,98756.19
2022-09-27T12:24:04.493Z,98762.75
2022-09-27T12:26:38.732Z,98746.59
2022-09-27T12:29:14.000Z,98748.78
2022-09-27T12:31:45.658Z,98736.44
2022-09-27T12:34:20.854Z,98750.78
2022-09-27T12:36:54.305Z,98743.88
2022-09-27T12:39:26.189Z,98752.31
2022-09-27T12:42:02.313Z,98735.91
2022-09-27T12:44:38.706Z,98726.50
2022-09-27T12:47:14.658Z,98744.88
2022-09-27T12:50:01.174Z,98741.72
2022-09-27T12:52:34.302Z,98746.13
2022-09-27T12:55:26.952Z,98757.69
2022-09-27T12:58:12.742Z,98751.59
2022-09-27T13:00:46.910Z,98749.03
2022-09-27T13:03:32.549Z,98756.69
2022-09-27T13:06:31.960Z,98750.59
2022-09-27T13:09:21.489Z,98737.88
2022-09-27T13:12:00.764Z,98745.38
2022-09-27T13:14:34.372Z,98739.97
2022-09-27T13:17:02.645Z,98730.66
2022-09-27T13:19:45.561Z,98743.34
2022-09-27T13:22:46.216Z,98747.66
2022-09-27T13:25:55.595Z,98744.66
2022-09-27T13:28:36.072Z,98754.41
2022-09-27T13:31:05.498Z,98739.75
2022-09-27T13:33:41.555Z,98748.19
2022-09-27T13:36:21.581Z,98747.13
2022-09-27T13:39:05.976Z,98741.88
2022-09-27T13:42:01.303Z,98738.69
2022-09-27T13:44:41.694Z,98739.19
2022-09-27T13:47:24.241Z,98729.56
2022-09-27T13:49:55.050Z,98743.22
2022-09-27T13:52:28.878Z,98748.50
2022-09-27T13:54:59.090Z,98751.22
2022-09-27T13:57:50.800Z,98752.06
2022-09-27T14:00:22.475Z,98759.44
2022-09-27T14:02:59.829Z,98759.53
2022-09-27T14:05:35.329Z,98763.34
2022-09-27T14:08:05.583Z,98766.84
2022-09-27T14:10:34.477Z,98755.34
2022-09-27T14:13:07.149Z,98750.31
2022-09-27T14:15:35.326Z,98740.06
2022-09-27T14:18:03.336Z,98751.59
2022-09-27T14:20:37.115Z,98738.47
2022-09-27T14:23:05.692Z,98733.81
2022-09-27T14:25:33.826Z,98736.63
2022-09-27T14:28:03.109Z,98740.88
2022-09-27T14:30:31.467Z,98744.78
2022-09-27T14:33:02.322Z,98735.47
2022-09-27T14:35:55.710Z,98729.25
2022-09-27T14:38:38.239Z,98733.91
2022-09-27T14:41:08.913Z,98726.16
2022-09-27T14:43:44.755Z,98740.84
2022-09-27T14:46:28.220Z,98749.41
2022-09-27T14:48:56.839Z,98735.78
2022-09-27T14:51:28.946Z,98743.63
2022-09-27T14:54:00.641Z,98741.44
2022-09-27T14:56:32.212Z,98747.22
2022-09-27T14:59:06.532Z,98757.34
2022-09-27T15:01:35.069Z,98747.09
2022-09-27T15:04:07.438Z,98762.06
2022-09-27T15:06:37.760Z,98763.16
2022-09-27T15:09:07.172Z,98757.03
2022-09-27T15:11:35.559Z,98755.13
2022-09-27T15:14:06.233Z,98766.34
2022-09-27T15:16:34.816Z,98750.81
2022-09-27T15:19:04.756Z,98759.03
2022-09-27T15:21:34.568Z,98765.03
2022-09-27T15:24:03.611Z,98761.81
2022-09-27T15:26:39.010Z,98759.09
2022-09-27T15:29:20.207Z,98767.25
2022-09-27T15:32:00.556Z,98767.25
2022-09-27T15:34:29.951Z,98766.97
2022-09-27T15:37:00.697Z,98786.84
2022-09-27T15:39:32.428Z,98791.78
2022-09-27T15:42:07.252Z,98800.13
2022-09-27T15:44:46.001Z,98797.09
2022-09-27T15:47:40.175Z,98800.00
2022-09-27T15:50:33.695Z,98785.31
2022-09-27T15:53:02.879Z,98787.31
2022-09-27T15:55:33.380Z,98785.59
2022-09-27T15:58:03.167Z,98797.75
2022-09-27T16:00:33.002Z,98791.78
2022-09-27T16:03:00.766Z,98795.06
2022-09-27T16:05:30.329Z,98797.19
2022-09-27T16:07:59.432Z,98798.50
2022-09-27T16:10:35.487Z,98808.88
2022-09-27T16:13:03.374Z,98803.34
2022-09-27T16:15:33.081Z,98819.13
2022-09-27T16:18:01.118Z,98831.00
2022-09-27T16:20:29.405Z,98838.38
2022-09-27T16:22:58.669Z,98857.66
2022-09-27T16:25:27.114Z,98856.66
2022-09-27T16:27:55.109Z,98849.56
2022-09-27T16:30:22.977Z,98849.19
2022-09-27T16:32:52.279Z,98854.72
2022-09-27T16:35:22.034Z,98846.19
2022-09-27T16:37:50.002Z,98847.41
2022-09-27T16:40:19.059Z,98814.47
2022-09-27T16:42:49.677Z,98851.03
2022-09-27T16:45:19.709Z,98852.44
2022-09-27T16:47:48.466Z,98850.31
2022-09-27T16:50:35.210Z,98864.50
2022-09-27T16:53:05.162Z,98856.69
2022-09-27T16:55:32.979Z,98844.63
2022-09-27T16:58:01.135Z,98855.47
2022-09-27T17:00:29.374Z,98852.97
2022-09-27T17:02:57.472Z,98863.03
2022-09-27T17:05:27.413Z,98859.75
2022-09-27T17:07:55.987Z,98871.09
2022-09-27T17:10:24.387Z,98859.59
2022-09-27T17:12:52.501Z,98857.22
2022-09-27T17:15:20.477Z,98857.63
2022-09-27T17:17:50.261Z,98860.13
2022-09-27T17:20:18.840Z,98862.00
2022-09-27T17:22:48.013Z,98866.66
2022-09-27T17:25:16.055Z,98859.88
2022-09-27T17:27:44.001Z,98858.94
2022-09-27T17:30:12.639Z,98873.69
2022-09-27T17:32:40.520Z,98866.00
2022-09-27T17:35:09.341Z,98860.75
2022-09-27T17:37:37.388Z,98869.53
2022-09-27T17:40:07.722Z,98854.91
2022-09-27T17:42:37.061Z,98861.78
2022-09-27T17:45:05.423Z,98859.88
2022-09-27T17:47:50.663Z,98861.78
2022-09-27T17:50:28.773Z,98867.31
2022-09-27T17:52:58.809Z,98862.97
2022-09-27T17:55:28.224Z,98866.25
2022-09-27T17:57:56.270Z,98867.84
2022-09-27T18:00:24.155Z,98875.13
2022-09-27T18:02:52.821Z,98892.03
2022-09-27T18:05:21.785Z,98879.78
2022-09-27T18:07:50.074Z,98889.13
2022-09-27T18:10:18.912Z,98880.97
2022-09-27T18:12:48.198Z,98876.25
2022-09-27T18:15:23.097Z,98878.44
2022-09-27T18:17:57.205Z,98878.66
2022-09-27T18:20:25.814Z,98886.63
2022-09-27T18:22:53.997Z,98882.50
2022-09-27T18:25:21.993Z,98872.84
2022-09-27T18:27:52.156Z,98864.72
2022-09-27T18:30:20.103Z,98878.75
2022-09-27T18:32:50.464Z,98871.41
2022-09-27T18:35:19.955Z,98881.53
2022-09-27T18:37:48.076Z,98883.69
2022-09-27T18:40:24.202Z,98885.41
2022-09-27T18:43:06.069Z,98882.09
2022-09-27T18:45:36.953Z,98872.66
2022-09-27T18:48:06.003Z,98880.13
2022-09-27T18:50:37.862Z,98881.88
2022-09-27T18:53:05.632Z,98872.34
2022-09-27T18:55:36.997Z,98884.09
2022-09-27T18:58:06.183Z,98884.50
2022-09-27T19:00:34.063Z,98888.09
2022-09-27T19:03:02.029Z,98894.00
2022-09-27T19:05:29.815Z,98890.97
2022-09-27T19:07:57.671Z,98883.25
2022-09-27T19:10:25.411Z,98893.53
2022-09-27T19:12:56.687Z,98900.84
2022-09-27T19:15:26.631Z,98896.91
2022-09-27T19:17:54.849Z,98893.78
2022-09-27T19:20:22.748Z,98898.88
2022-09-27T19:22:50.575Z,98908.91
2022-09-27T19:25:18.433Z,98900.44
2022-09-27T19:27:46.267Z,98898.63
2022-09-27T19:30:14.884Z,98899.22
2022-09-27T19:32:44.139Z,98907.81
2022-09-27T19:35:12.492Z,98902.22
2022-09-27T19:37:40.275Z,98903.38
2022-09-27T19:40:08.782Z,98890.69
2022-09-27T19:42:36.608Z,98899.28
2022-09-27T19:45:08.053Z,98898.72
2022-09-27T19:47:39.175Z,98900.09
2022-09-27T19:50:09.563Z,98901.09
2022-09-27T19:52:38.192Z,98891.50
2022-09-27T19:55:07.139Z,98895.50
2022-09-27T19:57:34.964Z,98899.38
2022-09-27T20:00:03.249Z,98892.63
2022-09-27T20:02:31.345Z,98883.38
2022-09-27T20:04:59.598Z,98882.06
2022-09-27T20:07:28.869Z,98881.72
2022-09-27T20:09:56.637Z,98867.13
2022-09-27T20:12:24.601Z,98888.03
2022-09-27T20:14:52.449Z,98883.38
2022-09-27T20:17:20.299Z,98882.78
2022-09-27T20:19:48.141Z,98889.19
2022-09-27T20:22:16.153Z,98885.16
2022-09-27T20:24:45.392Z,98864.47
2022-09-27T20:27:13.614Z,98879.91
2022-09-27T20:29:41.509Z,98875.16
2022-09-27T20:32:26.678Z,98862.53
2022-09-27T20:34:54.848Z,98871.47
2022-09-27T20:37:22.999Z,98865.38
2022-09-27T20:39:53.731Z,98855.44
2022-09-27T20:42:21.733Z,98856.44
2022-09-27T20:44:53.965Z,98860.47
2022-09-27T20:47:22.917Z,98849.69
2022-09-27T20:49:50.687Z,98848.88
2022-09-27T20:52:19.536Z,98861.75
2022-09-27T20:54:47.416Z,98849.44
2022-09-27T20:57:16.832Z,98853.69
2022-09-27T20:59:44.725Z,98856.09
2022-09-27T21:02:12.669Z,98851.16
2022-09-27T21:04:40.918Z,98834.66
2022-09-27T21:07:08.869Z,98845.41
2022-09-27T21:09:38.639Z,98846.22
2022-09-27T21:12:06.589Z,98842.53
2022-09-27T21:14:35.755Z,98848.16
2022-09-27T21:17:03.538Z,98844.53
2022-09-27T21:19:31.346Z,98828.59
2022-09-27T21:21:59.226Z,98845.75
2022-09-27T21:24:27.017Z,98834.84
2022-09-27T21:26:55.947Z,98851.75
2022-09-27T21:29:23.848Z,98834.47
2022-09-27T21:31:53.057Z,98844.09
2022-09-27T21:34:20.893Z,98843.84
2022-09-27T21:36:48.792Z,98837.16
2022-09-27T21:39:16.842Z,98819.19
2022-09-27T21:41:45.224Z,98822.72
2022-09-27T21:44:13.270Z,98814.34
2022-09-27T21:46:43.574Z,98824.09
2022-09-27T21:49:12.941Z,98801.72
2022-09-27T21:51:42.175Z,98810.75
2022-09-27T21:54:13.137Z,98816.16
2022-09-27T21:56:41.520Z,98821.72
2022-09-27T21:59:12.675Z,98811.88
2022-09-27T22:01:42.953Z,98811.28
2022-09-27T22:04:12.656Z,98817.00
2022-09-27T22:06:40.957Z,98805.38
2022-09-27T22:09:12.570Z,98811.94
2022-09-27T22:11:56.711Z,98804.66
2022-09-27T22:14:24.515Z,98808.19
2022-09-27T22:16:52.333Z,98804.19
2022-09-27T22:19:21.630Z,98802.44
2022-09-27T22:21:49.446Z,98789.50
2022-09-27T22:24:18.504Z,98779.44
2022-09-27T22:26:48.690Z,98781.97
2022-09-27T22:29:16.883Z,98777.72
2022-09-27T22:31:44.955Z,98765.19
2022-09-27T22:34:18.300Z,98777.59
2022-09-27T22:36:47.704Z,98768.66
2022-09-27T22:39:15.682Z,98758.97
2022-09-27T22:41:43.515Z,98749.81
2022-09-27T22:44:11.362Z,98770.22
2022-09-27T22:46:39.202Z,98746.94
2022-09-27T22:49:07.137Z,98756.53
2022-09-27T22:51:35.044Z,98756.41
2022-09-27T22:54:04.330Z,98740.72
2022-09-27T22:56:32.134Z,98721.81
2022-09-27T22:58:59.897Z,98715.34
2022-09-27T23:01:27.577Z,98719.38
2022-09-27T23:03:55.886Z,98703.84
2022-09-27T23:06:24.230Z,98698.63
2022-09-27T23:08:53.518Z,98709.66
2022-09-27T23:11:23.706Z,98696.97
2022-09-27T23:13:52.318Z,98701.31
2022-09-27T23:16:24.246Z,98692.38
2022-09-27T23:18:53.871Z,98692.94
2022-09-27T23:21:22.785Z,98696.25
2022-09-27T23:23:52.794Z,98695.72
2022-09-27T23:26:24.330Z,98687.44
2022-09-27T23:28:53.533Z,98682.28
2022-09-27T23:31:23.647Z,98686.13
2022-09-27T23:33:52.595Z,98680.47
2022-09-27T23:36:23.394Z,98677.84
2022-09-27T23:38:51.137Z,98664.56
2022-09-27T23:41:19.605Z,98658.56
2022-09-27T23:43:49.769Z,98656.44
2022-09-27T23:46:19.089Z,98652.91
2022-09-27T23:48:46.881Z,98651.41
2022-09-27T23:51:14.814Z,98636.00
2022-09-27T23:53:42.845Z,98649.28
2022-09-27T23:56:14.218Z,98634.53
2022-09-27T23:58:44.162Z,98623.53
